sensor_id;sensor_type;location;lat;lon;timestamp;temperature;humidity
18365;DHT22;9309;52.126;11.616;2022-08-19T00:00:25;21.20;83.00
18365;DHT22;9309;52.126;11.616;2022-08-19T00:02:52;21.20;83.50
18365;DHT22;9309;52.126;11.616;2022-08-19T00:05:20;21.00;84.70
18365;DHT22;9309;52.126;11.616;2022-08-19T00:07:48;21.00;84.60
18365;DHT22;9309;52.126;11.616;2022-08-19T00:10:17;21.00;85.10
18365;DHT22;9309;52.126;11.616;2022-08-19T00:12:46;21.00;84.80
18365;DHT22;9309;52.126;11.616;2022-08-19T00:15:16;20.90;85.80
18365;DHT22;9309;52.126;11.616;2022-08-19T00:17:44;20.80;86.00
18365;DHT22;9309;52.126;11.616;2022-08-19T00:20:13;20.70;86.70
18365;DHT22;9309;52.126;11.616;2022-08-19T00:22:42;20.70;86.70
18365;DHT22;9309;52.126;11.616;2022-08-19T00:25:09;20.60;87.40
18365;DHT22;9309;52.126;11.616;2022-08-19T00:27:35;20.60;88.50
18365;DHT22;9309;52.126;11.616;2022-08-19T00:30:05;20.70;87.20
18365;DHT22;9309;52.126;11.616;2022-08-19T00:32:32;20.60;87.70
18365;DHT22;9309;52.126;11.616;2022-08-19T00:35:00;20.60;88.80
18365;DHT22;9309;52.126;11.616;2022-08-19T00:37:27;20.60;88.60
18365;DHT22;9309;52.126;11.616;2022-08-19T00:39:54;20.50;88.60
18365;DHT22;9309;52.126;11.616;2022-08-19T00:42:22;20.50;88.70
18365;DHT22;9309;52.126;11.616;2022-08-19T00:44:49;20.40;89.60
18365;DHT22;9309;52.126;11.616;2022-08-19T00:47:18;20.30;89.80
18365;DHT22;9309;52.126;11.616;2022-08-19T00:49:48;20.30;90.40
18365;DHT22;9309;52.126;11.616;2022-08-19T00:52:19;20.30;90.50
18365;DHT22;9309;52.126;11.616;2022-08-19T00:54:47;20.20;90.90
18365;DHT22;9309;52.126;11.616;2022-08-19T00:57:16;20.20;90.90
18365;DHT22;9309;52.126;11.616;2022-08-19T00:59:46;20.20;90.40
18365;DHT22;9309;52.126;11.616;2022-08-19T01:02:14;20.30;90.50
18365;DHT22;9309;52.126;11.616;2022-08-19T01:04:42;20.20;90.70
18365;DHT22;9309;52.126;11.616;2022-08-19T01:07:09;20.20;90.50
18365;DHT22;9309;52.126;11.616;2022-08-19T01:09:36;20.20;90.60
18365;DHT22;9309;52.126;11.616;2022-08-19T01:12:03;20.20;90.20
18365;DHT22;9309;52.126;11.616;2022-08-19T01:14:30;20.20;90.50
18365;DHT22;9309;52.126;11.616;2022-08-19T01:16:57;20.10;90.70
18365;DHT22;9309;52.126;11.616;2022-08-19T01:19:28;20.10;91.50
18365;DHT22;9309;52.126;11.616;2022-08-19T01:22:03;20.00;91.20
18365;DHT22;9309;52.126;11.616;2022-08-19T01:24:33;20.10;90.80
18365;DHT22;9309;52.126;11.616;2022-08-19T01:26:59;20.10;90.60
18365;DHT22;9309;52.126;11.616;2022-08-19T01:29:29;20.20;90.80
18365;DHT22;9309;52.126;11.616;2022-08-19T01:31:57;20.20;90.90
18365;DHT22;9309;52.126;11.616;2022-08-19T01:34:24;20.10;90.70
18365;DHT22;9309;52.126;11.616;2022-08-19T01:36:50;20.00;90.70
18365;DHT22;9309;52.126;11.616;2022-08-19T01:39:21;20.20;91.20
18365;DHT22;9309;52.126;11.616;2022-08-19T01:41:50;20.20;89.70
18365;DHT22;9309;52.126;11.616;2022-08-19T01:44:17;20.20;89.30
18365;DHT22;9309;52.126;11.616;2022-08-19T01:46:47;20.10;91.00
18365;DHT22;9309;52.126;11.616;2022-08-19T01:49:15;20.20;90.50
18365;DHT22;9309;52.126;11.616;2022-08-19T01:51:42;20.10;90.00
18365;DHT22;9309;52.126;11.616;2022-08-19T01:54:10;20.10;90.50
18365;DHT22;9309;52.126;11.616;2022-08-19T01:56:37;20.10;90.80
18365;DHT22;9309;52.126;11.616;2022-08-19T01:59:11;20.10;90.70
18365;DHT22;9309;52.126;11.616;2022-08-19T02:01:39;20.30;90.10
18365;DHT22;9309;52.126;11.616;2022-08-19T02:04:07;20.40;89.00
18365;DHT22;9309;52.126;11.616;2022-08-19T02:06:34;20.30;89.40
18365;DHT22;9309;52.126;11.616;2022-08-19T02:09:01;20.30;89.70
18365;DHT22;9309;52.126;11.616;2022-08-19T02:11:30;20.20;90.20
18365;DHT22;9309;52.126;11.616;2022-08-19T02:13:59;20.20;89.40
18365;DHT22;9309;52.126;11.616;2022-08-19T02:16:29;20.10;90.00
18365;DHT22;9309;52.126;11.616;2022-08-19T02:18:56;20.10;90.40
18365;DHT22;9309;52.126;11.616;2022-08-19T02:21:26;20.30;89.50
18365;DHT22;9309;52.126;11.616;2022-08-19T02:23:53;20.20;89.40
18365;DHT22;9309;52.126;11.616;2022-08-19T02:26:21;20.20;89.50
18365;DHT22;9309;52.126;11.616;2022-08-19T02:28:48;20.30;88.60
18365;DHT22;9309;52.126;11.616;2022-08-19T02:31:17;20.30;88.60
18365;DHT22;9309;52.126;11.616;2022-08-19T02:33:46;20.30;89.00
18365;DHT22;9309;52.126;11.616;2022-08-19T02:36:14;20.20;89.40
18365;DHT22;9309;52.126;11.616;2022-08-19T02:38:42;20.20;89.80
18365;DHT22;9309;52.126;11.616;2022-08-19T02:41:13;20.20;89.30
18365;DHT22;9309;52.126;11.616;2022-08-19T02:43:41;20.20;89.90
18365;DHT22;9309;52.126;11.616;2022-08-19T02:46:12;20.20;89.50
18365;DHT22;9309;52.126;11.616;2022-08-19T02:48:39;20.20;89.50
18365;DHT22;9309;52.126;11.616;2022-08-19T02:51:07;20.20;89.60
18365;DHT22;9309;52.126;11.616;2022-08-19T02:53:34;20.10;89.50
18365;DHT22;9309;52.126;11.616;2022-08-19T02:56:00;20.10;89.80
18365;DHT22;9309;52.126;11.616;2022-08-19T02:58:27;20.10;89.30
18365;DHT22;9309;52.126;11.616;2022-08-19T03:00:56;20.10;89.50
18365;DHT22;9309;52.126;11.616;2022-08-19T03:03:23;20.10;89.30
18365;DHT22;9309;52.126;11.616;2022-08-19T03:05:49;20.00;89.70
18365;DHT22;9309;52.126;11.616;2022-08-19T03:08:18;20.00;89.90
18365;DHT22;9309;52.126;11.616;2022-08-19T03:10:46;19.90;90.00
18365;DHT22;9309;52.126;11.616;2022-08-19T03:13:13;19.90;90.40
18365;DHT22;9309;52.126;11.616;2022-08-19T03:15:42;19.90;90.00
18365;DHT22;9309;52.126;11.616;2022-08-19T03:18:10;19.80;89.90
18365;DHT22;9309;52.126;11.616;2022-08-19T03:20:41;19.70;90.00
18365;DHT22;9309;52.126;11.616;2022-08-19T03:23:08;19.90;88.60
18365;DHT22;9309;52.126;11.616;2022-08-19T03:25:38;19.80;89.40
18365;DHT22;9309;52.126;11.616;2022-08-19T03:28:06;19.80;89.20
18365;DHT22;9309;52.126;11.616;2022-08-19T03:30:33;19.80;89.20
18365;DHT22;9309;52.126;11.616;2022-08-19T03:32:59;19.80;89.10
18365;DHT22;9309;52.126;11.616;2022-08-19T03:35:27;19.80;89.10
18365;DHT22;9309;52.126;11.616;2022-08-19T03:37:54;19.80;89.00
18365;DHT22;9309;52.126;11.616;2022-08-19T03:40:21;19.70;89.50
18365;DHT22;9309;52.126;11.616;2022-08-19T03:42:49;19.80;88.70
18365;DHT22;9309;52.126;11.616;2022-08-19T03:45:16;19.80;88.10
18365;DHT22;9309;52.126;11.616;2022-08-19T03:47:43;19.80;88.50
18365;DHT22;9309;52.126;11.616;2022-08-19T03:50:11;19.80;88.40
18365;DHT22;9309;52.126;11.616;2022-08-19T03:52:37;19.70;88.00
18365;DHT22;9309;52.126;11.616;2022-08-19T03:55:06;19.70;89.00
18365;DHT22;9309;52.126;11.616;2022-08-19T03:57:33;19.70;88.00
18365;DHT22;9309;52.126;11.616;2022-08-19T04:00:03;19.70;88.30
18365;DHT22;9309;52.126;11.616;2022-08-19T04:02:32;19.70;87.80
18365;DHT22;9309;52.126;11.616;2022-08-19T04:04:58;19.70;88.10
18365;DHT22;9309;52.126;11.616;2022-08-19T04:07:25;19.60;87.70
18365;DHT22;9309;52.126;11.616;2022-08-19T04:09:52;19.70;88.10
18365;DHT22;9309;52.126;11.616;2022-08-19T04:12:19;19.60;88.70
18365;DHT22;9309;52.126;11.616;2022-08-19T04:14:46;19.60;87.70
18365;DHT22;9309;52.126;11.616;2022-08-19T04:17:14;19.60;87.40
18365;DHT22;9309;52.126;11.616;2022-08-19T04:19:41;19.50;87.20
18365;DHT22;9309;52.126;11.616;2022-08-19T04:22:08;19.50;87.60
18365;DHT22;9309;52.126;11.616;2022-08-19T04:24:36;19.40;87.80
18365;DHT22;9309;52.126;11.616;2022-08-19T04:27:04;19.50;87.20
18365;DHT22;9309;52.126;11.616;2022-08-19T04:29:32;19.50;86.60
18365;DHT22;9309;52.126;11.616;2022-08-19T04:31:59;19.50;86.70
18365;DHT22;9309;52.126;11.616;2022-08-19T04:34:28;19.60;86.70
18365;DHT22;9309;52.126;11.616;2022-08-19T04:36:56;19.50;86.90
18365;DHT22;9309;52.126;11.616;2022-08-19T04:39:26;19.50;87.20
18365;DHT22;9309;52.126;11.616;2022-08-19T04:42:13;19.70;86.00
18365;DHT22;9309;52.126;11.616;2022-08-19T04:44:58;19.60;86.20
18365;DHT22;9309;52.126;11.616;2022-08-19T04:47:25;19.70;85.00
18365;DHT22;9309;52.126;11.616;2022-08-19T04:49:53;19.70;85.20
18365;DHT22;9309;52.126;11.616;2022-08-19T04:52:19;19.70;85.00
18365;DHT22;9309;52.126;11.616;2022-08-19T04:54:46;19.70;85.70
18365;DHT22;9309;52.126;11.616;2022-08-19T04:57:13;19.70;85.00
18365;DHT22;9309;52.126;11.616;2022-08-19T04:59:40;19.70;84.30
18365;DHT22;9309;52.126;11.616;2022-08-19T05:02:08;19.80;84.10
18365;DHT22;9309;52.126;11.616;2022-08-19T05:04:36;19.70;84.30
18365;DHT22;9309;52.126;11.616;2022-08-19T05:07:06;19.70;84.40
18365;DHT22;9309;52.126;11.616;2022-08-19T05:09:34;19.90;83.80
18365;DHT22;9309;52.126;11.616;2022-08-19T05:12:01;19.80;84.00
18365;DHT22;9309;52.126;11.616;2022-08-19T05:14:27;19.70;84.30
18365;DHT22;9309;52.126;11.616;2022-08-19T05:16:54;19.70;84.10
18365;DHT22;9309;52.126;11.616;2022-08-19T05:19:21;19.60;85.20
18365;DHT22;9309;52.126;11.616;2022-08-19T05:22:07;19.60;85.00
18365;DHT22;9309;52.126;11.616;2022-08-19T05:24:51;19.60;85.50
18365;DHT22;9309;52.126;11.616;2022-08-19T05:27:18;19.70;84.90
18365;DHT22;9309;52.126;11.616;2022-08-19T05:29:44;19.70;84.70
18365;DHT22;9309;52.126;11.616;2022-08-19T05:32:11;19.70;84.30
18365;DHT22;9309;52.126;11.616;2022-08-19T05:34:38;19.60;84.40
18365;DHT22;9309;52.126;11.616;2022-08-19T05:37:06;19.70;83.70
18365;DHT22;9309;52.126;11.616;2022-08-19T05:39:35;19.70;83.80
18365;DHT22;9309;52.126;11.616;2022-08-19T05:42:04;19.60;84.90
18365;DHT22;9309;52.126;11.616;2022-08-19T05:44:35;19.70;84.00
18365;DHT22;9309;52.126;11.616;2022-08-19T05:47:04;19.70;83.60
18365;DHT22;9309;52.126;11.616;2022-08-19T05:49:32;19.90;82.50
18365;DHT22;9309;52.126;11.616;2022-08-19T05:52:02;19.70;83.20
18365;DHT22;9309;52.126;11.616;2022-08-19T05:54:31;19.60;83.70
18365;DHT22;9309;52.126;11.616;2022-08-19T05:56:59;19.50;84.80
18365;DHT22;9309;52.126;11.616;2022-08-19T05:59:26;19.50;84.30
18365;DHT22;9309;52.126;11.616;2022-08-19T06:01:54;19.50;84.60
18365;DHT22;9309;52.126;11.616;2022-08-19T06:04:21;19.50;84.90
18365;DHT22;9309;52.126;11.616;2022-08-19T06:06:52;19.60;83.60
18365;DHT22;9309;52.126;11.616;2022-08-19T06:09:20;19.60;84.10
18365;DHT22;9309;52.126;11.616;2022-08-19T06:11:50;19.60;83.40
18365;DHT22;9309;52.126;11.616;2022-08-19T06:14:21;19.60;83.80
18365;DHT22;9309;52.126;11.616;2022-08-19T06:16:48;19.50;84.10
18365;DHT22;9309;52.126;11.616;2022-08-19T06:19:17;19.60;83.80
18365;DHT22;9309;52.126;11.616;2022-08-19T06:21:46;19.60;84.20
18365;DHT22;9309;52.126;11.616;2022-08-19T06:24:15;19.70;83.60
18365;DHT22;9309;52.126;11.616;2022-08-19T06:26:44;19.80;82.70
18365;DHT22;9309;52.126;11.616;2022-08-19T06:29:15;19.70;83.20
18365;DHT22;9309;52.126;11.616;2022-08-19T06:31:43;19.60;84.20
18365;DHT22;9309;52.126;11.616;2022-08-19T06:34:11;19.60;84.50
18365;DHT22;9309;52.126;11.616;2022-08-19T06:36:41;19.70;82.90
18365;DHT22;9309;52.126;11.616;2022-08-19T06:39:11;19.60;83.10
18365;DHT22;9309;52.126;11.616;2022-08-19T06:41:40;19.70;82.70
18365;DHT22;9309;52.126;11.616;2022-08-19T06:44:17;19.70;82.60
18365;DHT22;9309;52.126;11.616;2022-08-19T06:46:44;19.60;82.70
18365;DHT22;9309;52.126;11.616;2022-08-19T06:49:11;19.70;82.90
18365;DHT22;9309;52.126;11.616;2022-08-19T06:51:40;19.70;83.50
18365;DHT22;9309;52.126;11.616;2022-08-19T06:54:08;19.60;84.20
18365;DHT22;9309;52.126;11.616;2022-08-19T06:56:35;19.50;85.30
18365;DHT22;9309;52.126;11.616;2022-08-19T06:59:03;19.30;86.80
18365;DHT22;9309;52.126;11.616;2022-08-19T07:01:34;19.00;88.10
18365;DHT22;9309;52.126;11.616;2022-08-19T07:04:04;18.90;89.10
18365;DHT22;9309;52.126;11.616;2022-08-19T07:06:32;18.80;89.50
18365;DHT22;9309;52.126;11.616;2022-08-19T07:08:58;18.70;91.10
18365;DHT22;9309;52.126;11.616;2022-08-19T07:11:25;18.70;90.30
18365;DHT22;9309;52.126;11.616;2022-08-19T07:13:52;18.70;91.30
18365;DHT22;9309;52.126;11.616;2022-08-19T07:16:20;18.80;91.20
18365;DHT22;9309;52.126;11.616;2022-08-19T07:18:49;18.70;90.00
18365;DHT22;9309;52.126;11.616;2022-08-19T07:21:18;18.70;90.60
18365;DHT22;9309;52.126;11.616;2022-08-19T07:23:45;18.80;89.90
18365;DHT22;9309;52.126;11.616;2022-08-19T07:26:15;18.80;90.50
18365;DHT22;9309;52.126;11.616;2022-08-19T07:28:42;18.80;90.50
18365;DHT22;9309;52.126;11.616;2022-08-19T07:31:11;18.90;89.70
18365;DHT22;9309;52.126;11.616;2022-08-19T07:33:38;18.80;91.00
18365;DHT22;9309;52.126;11.616;2022-08-19T07:36:09;18.90;90.60
18365;DHT22;9309;52.126;11.616;2022-08-19T07:38:39;18.90;89.90
18365;DHT22;9309;52.126;11.616;2022-08-19T07:41:06;18.90;89.70
18365;DHT22;9309;52.126;11.616;2022-08-19T07:43:33;19.10;89.50
18365;DHT22;9309;52.126;11.616;2022-08-19T07:45:59;19.20;89.00
18365;DHT22;9309;52.126;11.616;2022-08-19T07:48:27;19.20;88.50
18365;DHT22;9309;52.126;11.616;2022-08-19T07:50:56;19.20;89.60
18365;DHT22;9309;52.126;11.616;2022-08-19T07:53:26;19.20;89.30
18365;DHT22;9309;52.126;11.616;2022-08-19T07:55:53;19.30;89.40
18365;DHT22;9309;52.126;11.616;2022-08-19T07:58:21;19.50;87.90
18365;DHT22;9309;52.126;11.616;2022-08-19T08:00:49;19.70;87.30
18365;DHT22;9309;52.126;11.616;2022-08-19T08:03:20;19.90;86.00
18365;DHT22;9309;52.126;11.616;2022-08-19T08:06:07;20.00;84.40
18365;DHT22;9309;52.126;11.616;2022-08-19T08:08:53;20.00;84.20
18365;DHT22;9309;52.126;11.616;2022-08-19T08:11:45;19.90;85.00
18365;DHT22;9309;52.126;11.616;2022-08-19T08:14:15;19.90;85.50
18365;DHT22;9309;52.126;11.616;2022-08-19T08:16:42;20.00;86.10
18365;DHT22;9309;52.126;11.616;2022-08-19T08:19:11;20.00;84.30
18365;DHT22;9309;52.126;11.616;2022-08-19T08:21:39;20.00;83.80
18365;DHT22;9309;52.126;11.616;2022-08-19T08:24:07;19.90;85.10
18365;DHT22;9309;52.126;11.616;2022-08-19T08:26:34;19.90;84.10
18365;DHT22;9309;52.126;11.616;2022-08-19T08:29:00;19.90;84.20
18365;DHT22;9309;52.126;11.616;2022-08-19T08:31:27;19.70;85.50
18365;DHT22;9309;52.126;11.616;2022-08-19T08:33:54;19.40;85.70
18365;DHT22;9309;52.126;11.616;2022-08-19T08:36:24;19.50;85.80
18365;DHT22;9309;52.126;11.616;2022-08-19T08:38:52;19.40;86.10
18365;DHT22;9309;52.126;11.616;2022-08-19T08:41:27;19.40;85.10
18365;DHT22;9309;52.126;11.616;2022-08-19T08:43:55;19.20;86.00
18365;DHT22;9309;52.126;11.616;2022-08-19T08:46:27;19.20;86.00
18365;DHT22;9309;52.126;11.616;2022-08-19T08:49:01;19.00;86.90
18365;DHT22;9309;52.126;11.616;2022-08-19T08:51:34;19.20;86.20
18365;DHT22;9309;52.126;11.616;2022-08-19T08:54:05;19.20;85.70
18365;DHT22;9309;52.126;11.616;2022-08-19T08:56:33;19.20;86.10
18365;DHT22;9309;52.126;11.616;2022-08-19T08:59:05;19.30;85.80
18365;DHT22;9309;52.126;11.616;2022-08-19T09:01:35;19.40;85.50
18365;DHT22;9309;52.126;11.616;2022-08-19T09:04:03;19.40;85.10
18365;DHT22;9309;52.126;11.616;2022-08-19T09:06:37;19.50;85.20
18365;DHT22;9309;52.126;11.616;2022-08-19T09:09:12;19.50;84.40
18365;DHT22;9309;52.126;11.616;2022-08-19T09:11:56;19.60;84.40
18365;DHT22;9309;52.126;11.616;2022-08-19T09:14:35;19.70;83.40
18365;DHT22;9309;52.126;11.616;2022-08-19T09:17:03;19.70;83.30
18365;DHT22;9309;52.126;11.616;2022-08-19T09:19:34;19.70;83.20
18365;DHT22;9309;52.126;11.616;2022-08-19T09:22:02;19.90;82.30
18365;DHT22;9309;52.126;11.616;2022-08-19T09:24:28;19.90;82.00
18365;DHT22;9309;52.126;11.616;2022-08-19T09:26:57;19.80;81.80
18365;DHT22;9309;52.126;11.616;2022-08-19T09:29:23;19.90;81.90
18365;DHT22;9309;52.126;11.616;2022-08-19T09:31:50;19.90;82.10
18365;DHT22;9309;52.126;11.616;2022-08-19T09:34:17;20.00;82.20
18365;DHT22;9309;52.126;11.616;2022-08-19T09:36:45;20.00;82.50
18365;DHT22;9309;52.126;11.616;2022-08-19T09:39:12;20.10;82.70
18365;DHT22;9309;52.126;11.616;2022-08-19T09:41:38;20.20;81.20
18365;DHT22;9309;52.126;11.616;2022-08-19T09:44:06;20.20;82.00
18365;DHT22;9309;52.126;11.616;2022-08-19T09:46:34;20.30;81.80
18365;DHT22;9309;52.126;11.616;2022-08-19T09:49:01;20.20;81.70
18365;DHT22;9309;52.126;11.616;2022-08-19T09:51:31;20.50;81.60
18365;DHT22;9309;52.126;11.616;2022-08-19T09:54:00;20.70;79.70
18365;DHT22;9309;52.126;11.616;2022-08-19T09:56:28;20.70;78.60
18365;DHT22;9309;52.126;11.616;2022-08-19T09:58:57;20.80;77.40
18365;DHT22;9309;52.126;11.616;2022-08-19T10:01:28;21.00;77.30
18365;DHT22;9309;52.126;11.616;2022-08-19T10:03:58;21.00;76.20
18365;DHT22;9309;52.126;11.616;2022-08-19T10:06:27;21.00;77.00
18365;DHT22;9309;52.126;11.616;2022-08-19T10:08:55;20.80;78.60
18365;DHT22;9309;52.126;11.616;2022-08-19T10:11:22;20.80;76.90
18365;DHT22;9309;52.126;11.616;2022-08-19T10:13:49;20.70;76.90
18365;DHT22;9309;52.126;11.616;2022-08-19T10:16:18;20.80;78.40
18365;DHT22;9309;52.126;11.616;2022-08-19T10:18:49;21.00;76.90
18365;DHT22;9309;52.126;11.616;2022-08-19T10:21:19;21.10;75.50
18365;DHT22;9309;52.126;11.616;2022-08-19T10:23:48;21.30;74.90
18365;DHT22;9309;52.126;11.616;2022-08-19T10:26:18;21.40;74.80
18365;DHT22;9309;52.126;11.616;2022-08-19T10:28:45;21.40;74.90
18365;DHT22;9309;52.126;11.616;2022-08-19T10:31:15;21.50;74.30
18365;DHT22;9309;52.126;11.616;2022-08-19T10:33:43;21.30;73.80
18365;DHT22;9309;52.126;11.616;2022-08-19T10:36:13;21.00;75.80
18365;DHT22;9309;52.126;11.616;2022-08-19T10:38:41;21.00;75.10
18365;DHT22;9309;52.126;11.616;2022-08-19T10:41:11;21.10;75.40
18365;DHT22;9309;52.126;11.616;2022-08-19T10:43:38;21.20;75.40
18365;DHT22;9309;52.126;11.616;2022-08-19T10:46:05;21.70;74.60
18365;DHT22;9309;52.126;11.616;2022-08-19T10:48:32;22.40;71.60
18365;DHT22;9309;52.126;11.616;2022-08-19T10:51:00;22.70;71.10
18365;DHT22;9309;52.126;11.616;2022-08-19T10:53:45;23.30;67.90
18365;DHT22;9309;52.126;11.616;2022-08-19T10:56:12;23.50;67.70
18365;DHT22;9309;52.126;11.616;2022-08-19T10:58:56;23.20;66.00
18365;DHT22;9309;52.126;11.616;2022-08-19T11:01:24;22.80;68.50
18365;DHT22;9309;52.126;11.616;2022-08-19T11:03:51;22.30;71.10
18365;DHT22;9309;52.126;11.616;2022-08-19T11:06:18;22.30;71.30
18365;DHT22;9309;52.126;11.616;2022-08-19T11:08:47;22.10;71.20
18365;DHT22;9309;52.126;11.616;2022-08-19T11:11:13;22.20;70.80
18365;DHT22;9309;52.126;11.616;2022-08-19T11:13:41;22.40;70.10
18365;DHT22;9309;52.126;11.616;2022-08-19T11:16:11;22.90;69.50
18365;DHT22;9309;52.126;11.616;2022-08-19T11:18:42;23.40;68.00
18365;DHT22;9309;52.126;11.616;2022-08-19T11:21:11;23.80;65.10
18365;DHT22;9309;52.126;11.616;2022-08-19T11:23:38;23.70;63.70
18365;DHT22;9309;52.126;11.616;2022-08-19T11:26:06;23.30;65.30
18365;DHT22;9309;52.126;11.616;2022-08-19T11:28:33;23.00;66.20
18365;DHT22;9309;52.126;11.616;2022-08-19T11:31:00;23.00;66.50
18365;DHT22;9309;52.126;11.616;2022-08-19T11:33:29;23.40;64.60
18365;DHT22;9309;52.126;11.616;2022-08-19T11:35:57;23.50;64.60
18365;DHT22;9309;52.126;11.616;2022-08-19T11:38:24;23.50;65.90
18365;DHT22;9309;52.126;11.616;2022-08-19T11:40:55;24.00;62.90
18365;DHT22;9309;52.126;11.616;2022-08-19T11:43:23;24.50;61.20
18365;DHT22;9309;52.126;11.616;2022-08-19T11:45:50;24.50;61.10
18365;DHT22;9309;52.126;11.616;2022-08-19T11:48:16;24.20;61.20
18365;DHT22;9309;52.126;11.616;2022-08-19T11:50:47;24.00;62.70
18365;DHT22;9309;52.126;11.616;2022-08-19T11:53:15;23.70;63.50
18365;DHT22;9309;52.126;11.616;2022-08-19T11:55:41;23.50;64.40
18365;DHT22;9309;52.126;11.616;2022-08-19T11:58:10;23.30;66.60
18365;DHT22;9309;52.126;11.616;2022-08-19T12:00:40;23.30;65.80
18365;DHT22;9309;52.126;11.616;2022-08-19T12:03:07;23.70;64.40
18365;DHT22;9309;52.126;11.616;2022-08-19T12:05:36;24.00;63.20
18365;DHT22;9309;52.126;11.616;2022-08-19T12:08:04;24.00;63.10
18365;DHT22;9309;52.126;11.616;2022-08-19T12:10:30;24.30;63.70
18365;DHT22;9309;52.126;11.616;2022-08-19T12:12:57;25.20;59.90
18365;DHT22;9309;52.126;11.616;2022-08-19T12:15:24;25.20;59.10
18365;DHT22;9309;52.126;11.616;2022-08-19T12:17:54;25.50;57.50
18365;DHT22;9309;52.126;11.616;2022-08-19T12:20:23;25.50;58.40
18365;DHT22;9309;52.126;11.616;2022-08-19T12:22:50;25.90;57.30
18365;DHT22;9309;52.126;11.616;2022-08-19T12:25:17;26.20;56.30
18365;DHT22;9309;52.126;11.616;2022-08-19T12:27:44;26.20;55.80
18365;DHT22;9309;52.126;11.616;2022-08-19T12:30:12;26.10;55.80
18365;DHT22;9309;52.126;11.616;2022-08-19T12:32:40;25.30;58.40
18365;DHT22;9309;52.126;11.616;2022-08-19T12:35:09;25.10;59.10
18365;DHT22;9309;52.126;11.616;2022-08-19T12:37:37;25.10;58.70
18365;DHT22;9309;52.126;11.616;2022-08-19T12:40:04;25.00;60.00
18365;DHT22;9309;52.126;11.616;2022-08-19T12:42:31;25.40;59.00
18365;DHT22;9309;52.126;11.616;2022-08-19T12:44:58;25.40;58.50
18365;DHT22;9309;52.126;11.616;2022-08-19T12:47:25;26.20;55.30
18365;DHT22;9309;52.126;11.616;2022-08-19T12:49:52;26.60;53.70
18365;DHT22;9309;52.126;11.616;2022-08-19T12:52:22;26.90;53.60
18365;DHT22;9309;52.126;11.616;2022-08-19T12:54:49;26.90;53.90
18365;DHT22;9309;52.126;11.616;2022-08-19T12:57:16;27.60;51.60
18365;DHT22;9309;52.126;11.616;2022-08-19T12:59:43;27.60;51.00
18365;DHT22;9309;52.126;11.616;2022-08-19T13:02:10;27.10;53.80
18365;DHT22;9309;52.126;11.616;2022-08-19T13:04:37;26.50;54.50
18365;DHT22;9309;52.126;11.616;2022-08-19T13:07:06;26.10;55.80
18365;DHT22;9309;52.126;11.616;2022-08-19T13:09:34;25.60;57.20
18365;DHT22;9309;52.126;11.616;2022-08-19T13:12:02;25.10;58.10
18365;DHT22;9309;52.126;11.616;2022-08-19T13:14:33;24.70;60.00
18365;DHT22;9309;52.126;11.616;2022-08-19T13:17:00;24.40;61.70
18365;DHT22;9309;52.126;11.616;2022-08-19T13:19:27;24.30;60.60
18365;DHT22;9309;52.126;11.616;2022-08-19T13:21:55;24.20;60.60
18365;DHT22;9309;52.126;11.616;2022-08-19T13:24:23;24.30;60.70
18365;DHT22;9309;52.126;11.616;2022-08-19T13:26:51;24.40;60.60
18365;DHT22;9309;52.126;11.616;2022-08-19T13:29:18;24.80;59.50
18365;DHT22;9309;52.126;11.616;2022-08-19T13:32:02;24.90;59.30
18365;DHT22;9309;52.126;11.616;2022-08-19T13:34:47;25.00;60.60
18365;DHT22;9309;52.126;11.616;2022-08-19T13:37:14;25.20;58.40
18365;DHT22;9309;52.126;11.616;2022-08-19T13:39:40;25.30;59.10
18365;DHT22;9309;52.126;11.616;2022-08-19T13:42:08;25.20;57.60
18365;DHT22;9309;52.126;11.616;2022-08-19T13:44:36;25.10;58.70
18365;DHT22;9309;52.126;11.616;2022-08-19T13:47:03;24.90;59.40
18365;DHT22;9309;52.126;11.616;2022-08-19T13:49:32;24.90;58.60
18365;DHT22;9309;52.126;11.616;2022-08-19T13:52:00;24.70;59.10
18365;DHT22;9309;52.126;11.616;2022-08-19T13:54:26;24.70;60.40
18365;DHT22;9309;52.126;11.616;2022-08-19T13:56:53;24.90;60.00
18365;DHT22;9309;52.126;11.616;2022-08-19T13:59:21;24.80;59.70
18365;DHT22;9309;52.126;11.616;2022-08-19T14:01:48;24.80;60.10
18365;DHT22;9309;52.126;11.616;2022-08-19T14:04:15;24.70;59.50
18365;DHT22;9309;52.126;11.616;2022-08-19T14:06:42;24.90;59.20
18365;DHT22;9309;52.126;11.616;2022-08-19T14:09:08;25.20;57.30
18365;DHT22;9309;52.126;11.616;2022-08-19T14:11:35;25.10;58.80
18365;DHT22;9309;52.126;11.616;2022-08-19T14:14:02;25.70;56.20
18365;DHT22;9309;52.126;11.616;2022-08-19T14:16:30;25.80;57.30
18365;DHT22;9309;52.126;11.616;2022-08-19T14:18:57;25.70;57.10
18365;DHT22;9309;52.126;11.616;2022-08-19T14:21:24;25.90;55.30
18365;DHT22;9309;52.126;11.616;2022-08-19T14:23:52;25.70;56.20
18365;DHT22;9309;52.126;11.616;2022-08-19T14:26:21;25.70;55.30
18365;DHT22;9309;52.126;11.616;2022-08-19T14:28:47;25.10;58.00
18365;DHT22;9309;52.126;11.616;2022-08-19T14:31:16;24.80;59.20
18365;DHT22;9309;52.126;11.616;2022-08-19T14:33:46;25.00;58.40
18365;DHT22;9309;52.126;11.616;2022-08-19T14:36:13;25.20;57.30
18365;DHT22;9309;52.126;11.616;2022-08-19T14:38:39;25.20;58.30
18365;DHT22;9309;52.126;11.616;2022-08-19T14:41:09;24.90;58.50
18365;DHT22;9309;52.126;11.616;2022-08-19T14:43:36;24.70;58.90
18365;DHT22;9309;52.126;11.616;2022-08-19T14:46:03;24.70;58.30
18365;DHT22;9309;52.126;11.616;2022-08-19T14:48:30;24.30;60.60
18365;DHT22;9309;52.126;11.616;2022-08-19T14:50:58;24.50;59.10
18365;DHT22;9309;52.126;11.616;2022-08-19T14:53:25;24.30;60.40
18365;DHT22;9309;52.126;11.616;2022-08-19T14:55:52;24.20;59.70
18365;DHT22;9309;52.126;11.616;2022-08-19T14:58:19;24.20;59.80
18365;DHT22;9309;52.126;11.616;2022-08-19T15:00:45;24.00;62.70
18365;DHT22;9309;52.126;11.616;2022-08-19T15:03:12;23.80;61.60
18365;DHT22;9309;52.126;11.616;2022-08-19T15:05:39;23.90;61.80
18365;DHT22;9309;52.126;11.616;2022-08-19T15:08:07;23.90;62.00
18365;DHT22;9309;52.126;11.616;2022-08-19T15:10:34;23.70;63.00
18365;DHT22;9309;52.126;11.616;2022-08-19T15:13:01;24.00;61.80
18365;DHT22;9309;52.126;11.616;2022-08-19T15:15:28;23.90;61.70
18365;DHT22;9309;52.126;11.616;2022-08-19T15:17:54;23.80;61.50
18365;DHT22;9309;52.126;11.616;2022-08-19T15:20:28;23.60;62.90
18365;DHT22;9309;52.126;11.616;2022-08-19T15:22:55;23.60;63.50
18365;DHT22;9309;52.126;11.616;2022-08-19T15:25:24;23.50;62.40
18365;DHT22;9309;52.126;11.616;2022-08-19T15:27:51;23.30;64.10
18365;DHT22;9309;52.126;11.616;2022-08-19T15:30:21;23.10;64.40
18365;DHT22;9309;52.126;11.616;2022-08-19T15:32:48;23.30;63.70
18365;DHT22;9309;52.126;11.616;2022-08-19T15:35:15;23.30;63.30
18365;DHT22;9309;52.126;11.616;2022-08-19T15:37:43;23.40;63.90